This is the latest recevied weather packets stored in our database for station/object KO4LFZ. If no packets are shown the sender has not sent any weather packets the latest 10 day(s).
| Time | Temp. | Humidity | Pressure | Rain* | Wind** | Luminosity | Snow |
|---|---|---|---|---|---|---|---|
| 1777744946 | 18.89° C | 40% | 1016.8 hPa | 0 mm | - | 332 W/m² | - |
| 1777744645 | 18.33° C | 40% | 1016.7 hPa | 0 mm | - | 930 W/m² | - |
| 1777744335 | 18.33° C | 40% | 1016.7 hPa | 0 mm | - | 930 W/m² | - |
| 1777744032 | 17.78° C | 43% | 1016.9 hPa | 0 mm | - | 274 W/m² | - |
| 1777743730 | 17.78° C | 44% | 1016.8 hPa | 0 mm | - | 261 W/m² | - |
| 1777743426 | 18.33° C | 43% | 1017 hPa | 0 mm | - | 245 W/m² | - |
| 1777743124 | 18.33° C | 44% | 1016.8 hPa | 0 mm | - | 903 W/m² | - |
| 1777742822 | 18.33° C | 43% | 1017 hPa | 0 mm | - | 264 W/m² | - |
| 1777742517 | 18.33° C | 42% | 1017.1 hPa | 0 mm | - | 355 W/m² | - |
| 1777742213 | 18.89° C | 43% | 1017.1 hPa | 0 mm | - | 361 W/m² | - |
| 1777741910 | 17.78° C | 49% | 1017.1 hPa | 0 mm | - | 324 W/m² | - |
| 1777741607 | 17.78° C | 46% | 1016.9 hPa | 0 mm | - | 323 W/m² | - |
| 1777741304 | 18.33° C | 49% | 1017.2 hPa | 0 mm | - | 358 W/m² | - |
| 1777741000 | 18.33° C | 49% | 1017.3 hPa | 0 mm | - | 400 W/m² | - |
| 1777740698 | 17.78° C | 47% | 1017 hPa | 0 mm | - | 923 W/m² | - |
| 1777740393 | 17.22° C | 50% | 1017.4 hPa | 0 mm | - | 913 W/m² | - |
| 1777740091 | 17.22° C | 51% | 1017.5 hPa | 0 mm | - | 337 W/m² | - |
| 1777739787 | 17.22° C | 50% | 1017.5 hPa | 0 mm | - | 372 W/m² | - |
| 1777739484 | 17.78° C | 49% | 1017.6 hPa | 0 mm | - | 452 W/m² | - |
| 1777739180 | 18.33° C | 49% | 1017.5 hPa | 0 mm | - | 987 W/m² | - |
| 1777738878 | 17.78° C | 51% | 1017.5 hPa | 0 mm | - | 839 W/m² | - |
| 1777738575 | 17.78° C | 53% | 1017.6 hPa | 0 mm | - | 826 W/m² | - |
| 1777738272 | 17.22° C | 49% | 1017.6 hPa | 0 mm | - | 809 W/m² | - |
| 1777737970 | 17.22° C | 50% | 1017.5 hPa | 0 mm | - | 823 W/m² | - |
| 1777737668 | 17.22° C | 50% | 1017.7 hPa | 0 mm | - | 860 W/m² | - |
* Rain latest hour (hover to see other rain measurements)
** Current wind speed in m/s (hover to see current wind gust speed)